Time;durP1;ratioP1;P1;durP2;ratioP2;P2;SDS_P1;SDS_P2;PMS_P1;PMS_P2;Temp;Humidity;BMP_temperature;BMP_pressure;BME280_temperature;BME280_humidity;BME280_pressure;Samples;Min_cycle;Max_cycle;Signal;HPM_P1;HPM_P2
2021/04/18 00:04:50;;;;;;;6.80;6.23;;;9.80;31.00;;;;;;10474330;28;20315;-71
2021/04/18 00:09:52;;;;;;;6.77;6.27;;;9.80;30.90;;;;;;10479332;28;20263;-71
2021/04/18 00:14:55;;;;;;;6.50;6.00;;;9.70;30.90;;;;;;10478230;28;20316;-71
2021/04/18 00:19:57;;;;;;;6.57;5.97;;;9.70;31.20;;;;;;10471401;28;20587;-71
2021/04/18 00:24:59;;;;;;;6.53;6.03;;;9.70;31.10;;;;;;10478474;28;20321;-71
2021/04/18 00:30:05;;;;;;;6.90;6.33;;;9.70;31.20;;;;;;10478438;28;20316;-71
2021/04/18 00:35:08;;;;;;;7.00;6.40;;;9.70;31.50;;;;;;10475043;28;20259;-71
2021/04/18 00:40:14;;;;;;;6.73;6.23;;;9.70;31.40;;;;;;10483417;28;20239;-71
2021/04/18 00:45:18;;;;;;;6.80;6.20;;;9.60;31.50;;;;;;10474283;28;20311;-71
2021/04/18 00:50:23;;;;;;;6.80;6.27;;;9.60;31.50;;;;;;10475766;28;20482;-72
2021/04/18 00:55:27;;;;;;;7.23;6.63;;;9.60;31.70;;;;;;10481613;28;20307;-71
2021/04/18 01:00:31;;;;;;;7.40;6.80;;;9.50;31.50;;;;;;10474262;28;20302;-71
2021/04/18 01:05:33;;;;;;;6.73;6.23;;;9.50;31.50;;;;;;10481475;28;20224;-71
2021/04/18 01:10:36;;;;;;;5.43;5.03;;;9.50;31.50;;;;;;10477800;28;20645;-71
2021/04/18 01:15:39;;;;;;;6.40;5.90;;;9.50;31.40;;;;;;10478855;28;20252;-71
2021/04/18 01:20:42;;;;;;;6.53;6.03;;;9.40;31.60;;;;;;10469046;28;20232;-71
2021/04/18 01:25:45;;;;;;;7.43;6.83;;;9.40;31.50;;;;;;10477523;28;20232;-71
2021/04/18 01:30:47;;;;;;;7.53;6.93;;;9.40;31.70;;;;;;10482786;28;20227;-71
2021/04/18 01:35:49;;;;;;;7.33;6.73;;;9.40;31.70;;;;;;10485539;28;20248;-71
2021/04/18 01:40:53;;;;;;;7.07;6.57;;;9.40;31.70;;;;;;10478756;28;20220;-71
2021/04/18 01:45:55;;;;;;;7.60;7.00;;;9.30;31.70;;;;;;10490266;28;20323;-71
2021/04/18 01:50:57;;;;;;;7.53;6.83;;;9.30;31.70;;;;;;10479066;28;20217;-71
2021/04/18 01:56:01;;;;;;;7.47;6.77;;;9.30;31.80;;;;;;10484827;28;20320;-71
2021/04/18 02:01:04;;;;;;;7.90;7.30;;;9.30;32.10;;;;;;10482648;28;20304;-71
2021/04/18 02:06:06;;;;;;;8.40;7.60;;;9.30;31.90;;;;;;10479408;28;20300;-71
2021/04/18 02:11:10;;;;;;;7.40;6.80;;;9.30;32.10;;;;;;10482542;28;20335;-71
2021/04/18 02:16:12;;;;;;;6.27;5.77;;;9.30;32.10;;;;;;10480134;28;20274;-71
2021/04/18 02:21:14;;;;;;;8.57;7.80;;;9.30;32.00;;;;;;10484521;28;20705;-71
2021/04/18 02:26:17;;;;;;;7.63;7.03;;;9.30;32.10;;;;;;10479667;28;20233;-71
2021/04/18 02:31:20;;;;;;;8.43;7.73;;;9.30;32.30;;;;;;10476521;28;20775;-71
2021/04/18 02:36:23;;;;;;;8.60;7.87;;;9.30;32.30;;;;;;10484422;28;20235;-71
2021/04/18 02:41:26;;;;;;;8.33;7.63;;;9.20;32.10;;;;;;10479850;28;20319;-71
2021/04/18 02:46:28;;;;;;;7.63;7.03;;;9.20;32.30;;;;;;10479779;28;20253;-71
2021/04/18 02:51:31;;;;;;;8.23;6.93;;;9.20;32.20;;;;;;10480690;28;20220;-71
2021/04/18 02:56:34;;;;;;;7.60;7.00;;;9.20;32.20;;;;;;10485026;28;20629;-71
2021/04/18 03:01:36;;;;;;;6.77;6.17;;;9.20;32.40;;;;;;10479864;28;20531;-71
2021/04/18 03:06:39;;;;;;;7.67;6.97;;;9.20;32.40;;;;;;10484023;28;20228;-71
2021/04/18 03:11:42;;;;;;;7.90;7.20;;;9.10;32.30;;;;;;10475493;28;20591;-71
2021/04/18 03:16:44;;;;;;;7.53;6.83;;;9.10;32.40;;;;;;10484574;28;20299;-71
2021/04/18 03:21:46;;;;;;;8.33;7.63;;;9.10;32.20;;;;;;10473302;28;20224;-71
2021/04/18 03:26:51;;;;;;;8.80;7.73;;;9.10;32.30;;;;;;10473120;28;20652;-71
2021/04/18 03:31:53;;;;;;;8.47;7.77;;;9.10;32.50;;;;;;10469987;28;20217;-71
2021/04/18 03:36:55;;;;;;;8.73;7.93;;;9.10;32.50;;;;;;10472350;28;20235;-70
2021/04/18 03:41:58;;;;;;;8.47;7.77;;;9.00;32.40;;;;;;10484098;28;20312;-70
2021/04/18 03:47:00;;;;;;;9.97;9.07;;;9.00;32.60;;;;;;10471799;28;20236;-70
2021/04/18 03:52:04;;;;;;;9.67;8.80;;;9.00;32.50;;;;;;10479670;28;20308;-71
2021/04/18 03:57:08;;;;;;;10.67;9.67;;;9.00;32.70;;;;;;10482281;28;20251;-71
2021/04/18 04:02:10;;;;;;;9.57;8.67;;;9.00;33.00;;;;;;10473636;28;20253;-72
2021/04/18 04:07:13;;;;;;;11.10;10.10;;;8.90;32.70;;;;;;10479167;28;20227;-71
2021/04/18 04:12:16;;;;;;;11.20;10.20;;;8.90;32.80;;;;;;10470999;28;20311;-71
2021/04/18 04:17:18;;;;;;;10.93;9.90;;;8.90;33.10;;;;;;10477619;28;20252;-71
2021/04/18 04:22:20;;;;;;;13.03;11.80;;;8.90;33.00;;;;;;10475533;28;20643;-71
2021/04/18 04:27:23;;;;;;;12.50;11.37;;;8.90;33.20;;;;;;10482566;28;20318;-71
2021/04/18 04:32:25;;;;;;;12.37;11.27;;;8.90;33.30;;;;;;10477914;28;20288;-71
2021/04/18 04:37:28;;;;;;;13.80;12.63;;;8.90;33.20;;;;;;10473489;28;20303;-71
2021/04/18 04:42:31;;;;;;;14.00;12.27;;;8.80;33.20;;;;;;10473392;28;20224;-71
2021/04/18 04:47:34;;;;;;;12.03;11.03;;;8.80;33.60;;;;;;10473227;28;20329;-71
2021/04/18 04:52:36;;;;;;;14.00;12.60;;;8.80;33.30;;;;;;10480273;28;20246;-71
2021/04/18 04:57:39;;;;;;;14.27;12.93;;;8.80;33.50;;;;;;10478973;28;20331;-71
2021/04/18 05:02:42;;;;;;;15.10;13.57;;;8.80;33.80;;;;;;10484903;28;20276;-71
2021/04/18 05:07:44;;;;;;;13.87;12.57;;;8.80;33.60;;;;;;10471671;28;20308;-71
2021/04/18 05:12:47;;;;;;;14.57;13.17;;;8.80;34.40;;;;;;10472112;28;20227;-71
2021/04/18 05:17:49;;;;;;;14.63;13.23;;;8.80;33.90;;;;;;10471185;28;20243;-71
2021/04/18 05:22:52;;;;;;;14.03;12.73;;;8.80;33.80;;;;;;10473660;28;20224;-71
2021/04/18 05:27:55;;;;;;;13.60;12.30;;;8.90;33.80;;;;;;10479542;28;20315;-71
2021/04/18 05:32:57;;;;;;;13.07;11.87;;;8.90;33.90;;;;;;10479360;28;20307;-71
2021/04/18 05:37:59;;;;;;;14.57;13.07;;;8.90;33.90;;;;;;10482092;28;20228;-71
2021/04/18 05:43:03;;;;;;;13.93;12.53;;;8.90;33.90;;;;;;10476637;28;20319;-71
2021/04/18 05:48:06;;;;;;;12.97;11.67;;;8.90;34.00;;;;;;10469423;28;20308;-71
2021/04/18 05:53:08;;;;;;;13.47;12.17;;;8.90;33.90;;;;;;10477804;28;20228;-71
2021/04/18 05:58:12;;;;;;;12.80;11.60;;;9.00;34.00;;;;;;10469230;28;20311;-71
2021/04/18 06:03:14;;;;;;;13.47;12.17;;;8.90;33.90;;;;;;10478840;28;20232;-71
2021/04/18 06:08:17;;;;;;;13.83;12.53;;;9.00;34.00;;;;;;10472037;28;20278;-71
2021/04/18 06:13:20;;;;;;;13.83;12.50;;;9.00;34.00;;;;;;10476547;28;20252;-71
2021/04/18 06:18:22;;;;;;;13.63;12.40;;;9.00;34.20;;;;;;10471612;28;20499;-71
2021/04/18 06:23:24;;;;;;;13.33;12.07;;;9.00;34.00;;;;;;10484166;28;20307;-72
2021/04/18 06:28:28;;;;;;;14.17;12.77;;;9.00;34.20;;;;;;10480706;28;20637;-72
2021/04/18 06:33:30;;;;;;;14.43;13.10;;;9.10;34.40;;;;;;10485683;28;20303;-72
2021/04/18 06:38:32;;;;;;;15.00;13.50;;;9.10;34.30;;;;;;10483106;28;20767;-72
2021/04/18 06:43:37;;;;;;;15.23;13.73;;;9.20;34.30;;;;;;10478603;28;20248;-72
2021/04/18 06:48:40;;;;;;;16.67;14.40;;;9.20;34.70;;;;;;10481568;28;20243;-72
2021/04/18 06:53:43;;;;;;;15.27;13.80;;;9.30;34.30;;;;;;10486567;28;20722;-72
2021/04/18 06:58:46;;;;;;;15.03;13.63;;;9.40;34.30;;;;;;10474281;28;20324;-71
2021/04/18 07:04:07;;;;;;;15.77;14.17;;;9.40;34.30;;;;;;10478784;28;20227;-72
2021/04/18 07:09:10;;;;;;;16.40;14.83;;;9.50;35.30;;;;;;10476559;28;20725;-72
2021/04/18 07:14:27;;;;;;;16.90;13.73;;;9.50;34.40;;;;;;10478928;28;20312;-71
2021/04/18 07:19:29;;;;;;;14.83;13.33;;;9.60;35.20;;;;;;10471021;28;20229;-72
2021/04/18 07:24:32;;;;;;;14.53;13.13;;;9.70;34.40;;;;;;10471958;28;20224;-71
2021/04/18 07:29:35;;;;;;;14.97;13.47;;;9.80;35.20;;;;;;10469801;28;20316;-71
2021/04/18 07:34:37;;;;;;;15.07;13.70;;;9.80;34.30;;;;;;10469728;28;20220;-71
2021/04/18 07:39:47;;;;;;;15.37;13.87;;;9.80;34.20;;;;;;10464525;28;20231;-71
2021/04/18 07:44:52;;;;;;;14.07;12.77;;;9.80;34.70;;;;;;10470910;28;20282;-71
2021/04/18 07:49:55;;;;;;;14.57;13.17;;;9.80;34.30;;;;;;10473852;28;20232;-71
2021/04/18 07:54:57;;;;;;;14.13;12.77;;;9.80;34.20;;;;;;10478278;28;20245;-71
2021/04/18 08:00:01;;;;;;;15.10;13.70;;;9.80;34.20;;;;;;10474178;28;20709;-71
2021/04/18 08:05:04;;;;;;;13.80;12.50;;;9.80;34.30;;;;;;10476874;28;20216;-71
2021/04/18 08:10:23;;;;;;;15.23;13.77;;;9.90;34.30;;;;;;10476802;28;20220;-71
2021/04/18 08:15:26;;;;;;;14.40;13.10;;;9.90;35.00;;;;;;10469013;28;20228;-71
2021/04/18 08:20:32;;;;;;;14.93;13.53;;;9.90;34.70;;;;;;10472555;28;20312;-71
2021/04/18 08:25:35;;;;;;;14.57;13.20;;;10.00;33.70;;;;;;10472026;28;20332;-71
2021/04/18 08:31:02;;;;;;;15.40;14.03;;;10.00;33.60;;;;;;10469086;28;20270;-71
2021/04/18 08:36:12;;;;;;;14.50;13.00;;;10.00;33.90;;;;;;10472857;28;20244;-71
2021/04/18 08:41:15;;;;;;;12.90;11.73;;;10.10;34.00;;;;;;10469896;28;20248;-71
2021/04/18 08:46:23;;;;;;;13.70;12.40;;;10.20;34.20;;;;;;10473776;28;20236;-71
2021/04/18 08:51:25;;;;;;;12.63;11.53;;;10.20;33.90;;;;;;10470052;28;20252;-71
2021/04/18 08:56:43;;;;;;;11.23;10.33;;;10.30;33.50;;;;;;10477709;28;20657;-72
2021/04/18 09:01:58;;;;;;;10.83;9.83;;;10.40;34.30;;;;;;10464098;28;20315;-71
2021/04/18 09:07:02;;;;;;;11.73;10.73;;;10.50;33.60;;;;;;10465847;28;20287;-71
2021/04/18 09:12:05;;;;;;;10.80;9.90;;;10.60;33.60;;;;;;10470912;28;20587;-71
2021/04/18 09:17:16;;;;;;;10.77;9.87;;;10.70;33.30;;;;;;10473554;28;20816;-71
2021/04/18 09:22:20;;;;;;;11.07;10.07;;;10.90;33.30;;;;;;10469216;28;20573;-71
2021/04/18 09:27:25;;;;;;;10.57;9.67;;;10.90;32.90;;;;;;10468816;28;20253;-71
2021/04/18 09:32:29;;;;;;;10.40;9.47;;;11.00;32.70;;;;;;10469739;28;20311;-71
2021/04/18 09:37:34;;;;;;;9.93;9.03;;;11.00;32.70;;;;;;10476355;28;20627;-71
2021/04/18 09:42:42;;;;;;;10.47;9.47;;;11.00;32.70;;;;;;10474249;28;20224;-71
2021/04/18 09:47:46;;;;;;;11.30;10.30;;;11.10;32.60;;;;;;10477482;28;20228;-71
2021/04/18 09:52:50;;;;;;;10.50;9.60;;;11.10;32.60;;;;;;10474715;28;20708;-71
2021/04/18 09:57:54;;;;;;;10.97;10.07;;;11.10;32.50;;;;;;10480663;28;20255;-71
2021/04/18 10:02:59;;;;;;;9.20;8.40;;;11.10;32.50;;;;;;10488510;28;20326;-72
2021/04/18 10:08:22;;;;;;;9.27;8.43;;;11.10;32.50;;;;;;10481456;28;20308;-72
2021/04/18 10:13:43;;;;;;;10.17;9.17;;;11.20;32.50;;;;;;10484231;28;20303;-71
2021/04/18 10:19:08;;;;;;;10.87;9.93;;;11.30;32.50;;;;;;10480815;28;20236;-72
2021/04/18 10:24:34;;;;;;;12.23;11.07;;;11.30;32.60;;;;;;10483669;28;20404;-71
2021/04/18 10:29:38;;;;;;;11.50;10.50;;;11.40;32.60;;;;;;10472960;28;20229;-71
2021/04/18 10:34:41;;;;;;;12.57;11.37;;;11.30;32.20;;;;;;10481468;28;20270;-71
2021/04/18 10:39:43;;;;;;;13.17;11.97;;;11.30;32.30;;;;;;10479467;28;20224;-71
2021/04/18 10:44:46;;;;;;;14.03;12.63;;;11.40;32.40;;;;;;10484997;28;20227;-71
2021/04/18 10:49:50;;;;;;;13.90;12.60;;;11.30;32.20;;;;;;10478503;28;20331;-71
2021/04/18 10:54:52;;;;;;;13.27;12.07;;;11.30;32.20;;;;;;10486897;28;20738;-70
2021/04/18 10:59:54;;;;;;;13.83;12.43;;;11.40;32.20;;;;;;10486071;28;20256;-71
2021/04/18 11:04:57;;;;;;;13.67;12.37;;;11.40;32.20;;;;;;10482087;28;20640;-71
2021/04/18 11:10:00;;;;;;;14.87;13.47;;;11.40;32.20;;;;;;10477025;28;20716;-71
2021/04/18 11:15:02;;;;;;;14.33;12.93;;;11.40;32.20;;;;;;10480578;28;20626;-70
2021/04/18 11:20:07;;;;;;;14.20;12.73;;;11.40;32.00;;;;;;10474660;28;20260;-70
2021/04/18 11:25:13;;;;;;;14.70;13.03;;;11.50;32.20;;;;;;10477888;28;20722;-70
2021/04/18 11:30:16;;;;;;;13.57;12.27;;;11.50;32.40;;;;;;10474813;28;20307;-70
2021/04/18 11:35:19;;;;;;;13.00;11.77;;;11.60;32.20;;;;;;10474503;28;20248;-71
2021/04/18 11:40:24;;;;;;;12.83;11.63;;;11.70;32.00;;;;;;10479814;28;20578;-72
2021/04/18 11:45:26;;;;;;;11.80;10.80;;;11.80;32.00;;;;;;10476846;28;20232;-72
2021/04/18 11:50:29;;;;;;;14.40;12.90;;;12.00;32.10;;;;;;10475141;28;20778;-72
2021/04/18 11:55:34;;;;;;;20.03;17.93;;;12.00;31.90;;;;;;10474693;28;20316;-70
2021/04/18 12:00:36;;;;;;;13.97;12.67;;;12.20;31.90;;;;;;10468271;28;20244;-70
2021/04/18 12:05:39;;;;;;;14.20;12.70;;;12.30;32.00;;;;;;10476787;28;20307;-72
2021/04/18 12:10:42;;;;;;;13.70;12.40;;;12.30;31.60;;;;;;10477751;28;20315;-72
2021/04/18 12:15:45;;;;;;;13.80;12.43;;;12.40;31.60;;;;;;10476600;28;20307;-73
2021/04/18 12:20:48;;;;;;;13.47;12.27;;;12.40;31.60;;;;;;10472916;28;20662;-72
2021/04/18 12:25:50;;;;;;;13.47;12.27;;;12.40;31.60;;;;;;10475554;28;20303;-70
2021/04/18 12:30:53;;;;;;;14.17;12.87;;;12.50;31.40;;;;;;10466974;28;20240;-70
2021/04/18 12:35:56;;;;;;;13.80;12.47;;;12.50;31.20;;;;;;10481797;28;20305;-70
2021/04/18 12:40:58;;;;;;;13.73;12.43;;;12.40;31.00;;;;;;10469004;28;20301;-70
2021/04/18 12:46:01;;;;;;;12.77;11.57;;;12.40;31.30;;;;;;10476570;28;20240;-70
2021/04/18 12:51:05;;;;;;;13.93;12.63;;;12.40;31.30;;;;;;10473831;28;20272;-70
2021/04/18 12:56:08;;;;;;;13.20;12.00;;;12.40;31.10;;;;;;10474595;28;20715;-70
2021/04/18 13:01:10;;;;;;;13.03;11.93;;;12.40;31.10;;;;;;10476068;28;20311;-70
2021/04/18 13:06:13;;;;;;;13.20;12.00;;;12.40;31.30;;;;;;10478117;28;20243;-71
2021/04/18 13:11:16;;;;;;;13.20;11.97;;;12.40;31.30;;;;;;10478509;28;20289;-71
2021/04/18 13:16:18;;;;;;;12.67;11.57;;;12.50;31.30;;;;;;10470059;28;20298;-71
2021/04/18 13:21:21;;;;;;;12.67;11.53;;;12.50;31.20;;;;;;10475659;28;20260;-71
2021/04/18 13:26:24;;;;;;;12.07;10.87;;;12.50;31.30;;;;;;10471166;28;20973;-70
2021/04/18 13:31:26;;;;;;;13.27;11.90;;;12.50;32.40;;;;;;10475531;28;20307;-70
2021/04/18 13:36:29;;;;;;;14.13;12.83;;;12.60;31.70;;;;;;10471207;28;20232;-70
2021/04/18 13:41:32;;;;;;;13.20;12.00;;;12.60;31.70;;;;;;10472198;28;20297;-70
2021/04/18 13:46:34;;;;;;;13.17;11.97;;;12.70;31.40;;;;;;10466744;28;20239;-70
2021/04/18 13:51:39;;;;;;;13.70;12.37;;;12.70;31.30;;;;;;10470179;28;20316;-70
2021/04/18 13:56:41;;;;;;;14.00;12.70;;;12.80;31.40;;;;;;10472933;28;20277;-70
2021/04/18 14:01:43;;;;;;;11.50;10.47;;;12.80;31.20;;;;;;10471627;28;20709;-70
2021/04/18 14:06:46;;;;;;;11.73;10.63;;;12.80;31.20;;;;;;10472093;28;20232;-70
2021/04/18 14:11:49;;;;;;;12.80;11.63;;;12.90;31.20;;;;;;10475151;28;20248;-70
2021/04/18 14:16:51;;;;;;;14.50;13.10;;;13.00;31.40;;;;;;10468092;28;20226;-70
2021/04/18 14:21:54;;;;;;;13.50;12.30;;;13.00;31.30;;;;;;10477876;28;20229;-70
2021/04/18 14:26:57;;;;;;;13.50;12.30;;;13.10;31.10;;;;;;10468980;28;20319;-70
2021/04/18 14:32:03;;;;;;;13.27;12.07;;;13.10;31.10;;;;;;10466859;28;20278;-70
2021/04/18 14:37:06;;;;;;;14.03;12.73;;;13.10;31.10;;;;;;10464983;28;20232;-70
2021/04/18 14:42:09;;;;;;;12.17;11.07;;;13.20;31.30;;;;;;10471950;28;20906;-70
2021/04/18 14:47:12;;;;;;;12.13;11.10;;;13.20;31.10;;;;;;10471101;28;20319;-70
2021/04/18 14:52:15;;;;;;;12.77;11.57;;;13.30;30.70;;;;;;10479259;28;20228;-70
2021/04/18 14:57:17;;;;;;;11.73;10.63;;;13.30;30.60;;;;;;10478209;28;20315;-70
2021/04/18 15:02:19;;;;;;;12.37;11.23;;;13.30;30.60;;;;;;10478373;28;20760;-70
2021/04/18 15:07:23;;;;;;;11.77;10.60;;;13.40;30.70;;;;;;10476997;28;20235;-71
2021/04/18 15:12:25;;;;;;;11.93;10.87;;;13.40;30.70;;;;;;10475348;28;20316;-70
2021/04/18 15:17:27;;;;;;;11.40;10.30;;;13.40;30.70;;;;;;10475949;28;20236;-68
2021/04/18 15:22:31;;;;;;;10.20;9.30;;;13.40;30.70;;;;;;10477778;28;20927;-71
2021/04/18 15:27:33;;;;;;;10.47;9.50;;;13.50;30.80;;;;;;10481044;28;20791;-71
2021/04/18 15:32:35;;;;;;;10.93;9.83;;;13.60;30.90;;;;;;10475016;28;20758;-70
2021/04/18 15:37:39;;;;;;;10.03;9.23;;;13.60;30.80;;;;;;10470886;28;20236;-70
2021/04/18 15:42:43;;;;;;;10.27;9.37;;;13.60;30.90;;;;;;10474291;28;20311;-71
2021/04/18 15:47:46;;;;;;;11.03;10.03;;;13.60;30.90;;;;;;10475390;28;20306;-71
2021/04/18 15:52:50;;;;;;;10.50;9.43;;;13.60;30.80;;;;;;10475690;28;20209;-70
2021/04/18 15:57:52;;;;;;;10.90;9.93;;;13.50;30.30;;;;;;10474701;28;20311;-70
2021/04/18 16:02:54;;;;;;;10.50;9.50;;;13.50;30.80;;;;;;10485500;28;20308;-70
2021/04/18 16:07:57;;;;;;;10.80;9.80;;;13.40;30.70;;;;;;10482308;28;20232;-72
2021/04/18 16:12:59;;;;;;;10.80;9.80;;;13.40;30.70;;;;;;10476397;28;20304;-72
2021/04/18 16:18:01;;;;;;;9.63;8.63;;;13.40;30.70;;;;;;10500669;22;20317;-72
2021/04/18 16:23:05;;;;;;;10.83;9.73;;;13.50;30.80;;;;;;10484949;28;20228;-72
2021/04/18 16:28:08;;;;;;;9.40;8.50;;;13.50;30.60;;;;;;10485783;28;20275;-72
2021/04/18 16:33:10;;;;;;;9.23;8.43;;;13.60;30.80;;;;;;10482682;28;20266;-72
2021/04/18 16:38:14;;;;;;;9.37;8.60;;;13.60;30.70;;;;;;10487142;28;20734;-73
2021/04/18 16:43:16;;;;;;;10.13;9.23;;;13.70;30.30;;;;;;10476519;28;20251;-73
2021/04/18 16:48:23;;;;;;;9.57;8.77;;;13.70;30.20;;;;;;10459024;22;20274;-68
2021/04/18 16:53:26;;;;;;;8.97;8.17;;;13.80;30.10;;;;;;10437406;28;20228;-68
2021/04/18 16:58:29;;;;;;;8.67;7.87;;;13.80;29.80;;;;;;10434352;28;20310;-68
2021/04/18 17:03:31;;;;;;;9.60;8.70;;;13.70;30.00;;;;;;10432746;28;20260;-68
2021/04/18 17:08:34;;;;;;;9.77;8.87;;;13.70;30.00;;;;;;10433498;28;20660;-68
2021/04/18 17:13:37;;;;;;;9.40;8.60;;;13.70;29.90;;;;;;10433714;28;20229;-68
2021/04/18 17:18:40;;;;;;;9.00;8.30;;;13.70;30.20;;;;;;10426938;28;20311;-68
2021/04/18 17:23:45;;;;;;;9.40;8.60;;;13.70;30.00;;;;;;10439855;28;20224;-73
2021/04/18 17:28:47;;;;;;;9.97;9.07;;;13.70;29.90;;;;;;10437465;28;20316;-74
2021/04/18 17:33:51;;;;;;;11.13;10.13;;;13.70;29.80;;;;;;10438138;28;20311;-68
2021/04/18 17:38:57;;;;;;;12.40;11.27;;;13.70;29.90;;;;;;10428847;28;20732;-68
2021/04/18 17:44:02;;;;;;;11.17;10.17;;;13.60;29.80;;;;;;10433244;28;20312;-68
2021/04/18 17:49:04;;;;;;;10.63;9.67;;;13.60;29.90;;;;;;10433678;28;20313;-69
2021/04/18 17:54:07;;;;;;;10.80;9.80;;;13.50;29.80;;;;;;10431618;28;20312;-69
2021/04/18 17:59:09;;;;;;;9.97;9.13;;;13.50;29.90;;;;;;10432028;28;20716;-68
2021/04/18 18:04:12;;;;;;;11.77;10.57;;;13.40;29.90;;;;;;10443580;28;20229;-69
2021/04/18 18:09:15;;;;;;;10.13;9.27;;;13.30;30.00;;;;;;10430306;28;20252;-74
2021/04/18 18:14:18;;;;;;;9.97;9.07;;;13.30;30.00;;;;;;10442463;28;20719;-74
2021/04/18 18:19:20;;;;;;;9.10;8.30;;;13.20;30.00;;;;;;10448065;28;20221;-74
2021/04/18 18:24:23;;;;;;;10.83;9.70;;;13.10;30.00;;;;;;10438684;28;20666;-73
2021/04/18 18:29:25;;;;;;;9.10;8.30;;;13.00;30.00;;;;;;10453775;28;20735;-73
2021/04/18 18:34:27;;;;;;;10.97;9.97;;;13.00;30.40;;;;;;10459320;28;20667;-73
2021/04/18 18:39:31;;;;;;;11.43;9.83;;;12.90;30.30;;;;;;10446911;28;20220;-73
2021/04/18 18:44:33;;;;;;;11.00;10.00;;;12.80;30.20;;;;;;10433768;28;20245;-73
2021/04/18 18:49:35;;;;;;;10.47;9.47;;;12.70;30.10;;;;;;10431583;28;20830;-73
2021/04/18 18:54:39;;;;;;;11.97;10.87;;;12.70;30.10;;;;;;10466871;28;20692;-74
2021/04/18 18:59:41;;;;;;;10.20;9.20;;;12.60;30.00;;;;;;10442700;28;20217;-74
2021/04/18 19:04:43;;;;;;;11.07;10.13;;;12.50;30.00;;;;;;10445574;28;20312;-73
2021/04/18 19:09:46;;;;;;;11.70;9.80;;;12.40;30.00;;;;;;10438303;28;20343;-73
2021/04/18 19:14:50;;;;;;;9.87;8.90;;;12.40;30.00;;;;;;10429375;28;20330;-72
2021/04/18 19:19:52;;;;;;;14.03;12.63;;;12.30;29.90;;;;;;10454103;28;20333;-72
2021/04/18 19:24:55;;;;;;;12.83;11.53;;;12.20;29.80;;;;;;10432364;28;20681;-72
2021/04/18 19:29:58;;;;;;;13.27;11.97;;;12.20;29.80;;;;;;10452431;28;20231;-72
2021/04/18 19:35:00;;;;;;;13.03;11.63;;;12.10;29.90;;;;;;10454227;28;20302;-72
2021/04/18 19:40:04;;;;;;;12.57;11.37;;;12.00;30.00;;;;;;10444787;28;20683;-71
2021/04/18 19:45:09;;;;;;;12.23;11.03;;;11.90;30.00;;;;;;10444418;28;20779;-72
2021/04/18 19:50:26;;;;;;;11.67;10.57;;;11.70;30.00;;;;;;10430004;28;20229;-73
2021/04/18 19:55:29;;;;;;;15.50;13.90;;;11.60;30.20;;;;;;10448673;28;20320;-72
2021/04/18 20:00:32;;;;;;;17.80;16.03;;;11.50;30.40;;;;;;10442549;28;20229;-72
2021/04/18 20:05:34;;;;;;;19.63;17.40;;;11.40;30.30;;;;;;10457937;28;20705;-73
2021/04/18 20:10:37;;;;;;;21.97;17.07;;;11.20;30.40;;;;;;10449720;28;20712;-72
2021/04/18 20:15:40;;;;;;;17.13;15.33;;;11.00;30.70;;;;;;10449177;28;20249;-72
2021/04/18 20:20:43;;;;;;;16.90;15.13;;;10.80;30.70;;;;;;10445252;28;20608;-72
2021/04/18 20:25:46;;;;;;;17.03;15.23;;;10.70;31.00;;;;;;10438816;28;20298;-72
2021/04/18 20:30:49;;;;;;;16.87;15.07;;;10.60;31.20;;;;;;10439108;28;20240;-72
2021/04/18 20:35:51;;;;;;;15.97;14.40;;;10.50;31.30;;;;;;10434633;28;20225;-72
2021/04/18 20:40:55;;;;;;;14.97;13.57;;;10.40;31.50;;;;;;10431953;28;20359;-72
2021/04/18 20:45:57;;;;;;;15.23;13.63;;;10.30;31.60;;;;;;10425725;28;20231;-72
2021/04/18 20:51:00;;;;;;;16.23;14.53;;;10.20;31.50;;;;;;10430216;28;20230;-72
2021/04/18 20:56:03;;;;;;;15.50;13.90;;;10.20;31.80;;;;;;10433926;28;20298;-72
2021/04/18 21:01:06;;;;;;;15.87;14.27;;;10.10;31.90;;;;;;10428725;28;20765;-71
2021/04/18 21:06:09;;;;;;;14.53;13.13;;;10.10;32.00;;;;;;10431707;28;20282;-72
2021/04/18 21:11:12;;;;;;;15.13;13.63;;;10.00;31.90;;;;;;10440133;28;20232;-72
2021/04/18 21:16:15;;;;;;;16.47;14.83;;;9.90;33.10;;;;;;10434787;28;20616;-72
2021/04/18 21:21:17;;;;;;;16.17;14.50;;;9.90;33.20;;;;;;10429529;28;20228;-72
2021/04/18 21:26:20;;;;;;;16.60;15.00;;;9.80;33.20;;;;;;10436393;28;20278;-72
2021/04/18 21:31:23;;;;;;;16.37;14.67;;;9.80;33.50;;;;;;10428121;28;20228;-72
2021/04/18 21:36:28;;;;;;;16.80;15.17;;;9.80;33.50;;;;;;10434917;28;20236;-72
2021/04/18 21:41:31;;;;;;;16.87;15.17;;;9.80;33.40;;;;;;10434623;28;20248;-72
2021/04/18 21:46:34;;;;;;;15.80;14.23;;;9.80;33.80;;;;;;10437557;28;20274;-72
2021/04/18 21:51:36;;;;;;;15.10;13.60;;;9.80;34.50;;;;;;10431438;28;20576;-72
2021/04/18 21:56:39;;;;;;;15.17;13.67;;;9.80;33.80;;;;;;10442669;28;20256;-71
2021/04/18 22:01:41;;;;;;;16.40;14.77;;;9.70;34.00;;;;;;10438870;28;20312;-72
2021/04/18 22:06:44;;;;;;;15.00;13.57;;;9.70;34.70;;;;;;10441587;28;20236;-71
2021/04/18 22:11:47;;;;;;;15.57;13.97;;;9.80;34.10;;;;;;10438036;28;20320;-72
2021/04/18 22:16:50;;;;;;;16.30;14.60;;;9.80;34.30;;;;;;10435937;28;20252;-72
2021/04/18 22:21:52;;;;;;;15.80;14.23;;;9.80;34.20;;;;;;10442976;28;20236;-72
2021/04/18 22:26:55;;;;;;;15.67;13.97;;;9.80;34.10;;;;;;10436895;28;20316;-72
2021/04/18 22:31:58;;;;;;;16.37;14.80;;;9.70;34.30;;;;;;10440791;28;20213;-72
2021/04/18 22:37:01;;;;;;;15.63;14.23;;;9.70;34.20;;;;;;10439266;28;20235;-71
2021/04/18 22:42:04;;;;;;;16.37;14.67;;;9.70;34.30;;;;;;10437653;28;20307;-72
2021/04/18 22:47:07;;;;;;;16.40;14.70;;;9.60;34.50;;;;;;10433659;28;20228;-72
2021/04/18 22:52:09;;;;;;;15.80;14.27;;;9.60;34.50;;;;;;10489525;22;20669;-69
2021/04/18 22:57:12;;;;;;;15.93;14.43;;;9.50;34.40;;;;;;10480216;28;20251;-69
2021/04/18 23:02:15;;;;;;;15.67;14.07;;;9.60;34.70;;;;;;10483829;28;20515;-69
2021/04/18 23:07:17;;;;;;;16.90;15.30;;;9.60;34.50;;;;;;10479074;28;20224;-69
2021/04/18 23:12:20;;;;;;;16.80;15.10;;;9.60;34.50;;;;;;10480087;28;20695;-68
2021/04/18 23:17:23;;;;;;;17.73;15.97;;;9.50;34.70;;;;;;10483001;28;20307;-69
2021/04/18 23:22:25;;;;;;;15.50;14.07;;;9.40;34.70;;;;;;10481036;28;20722;-69
2021/04/18 23:27:28;;;;;;;15.70;14.20;;;9.30;34.70;;;;;;10479877;28;20311;-69
2021/04/18 23:32:30;;;;;;;16.53;14.93;;;9.30;35.00;;;;;;10484639;28;20251;-69
2021/04/18 23:37:33;;;;;;;16.03;14.53;;;9.30;34.80;;;;;;10477438;28;20692;-70
2021/04/18 23:42:36;;;;;;;16.10;14.57;;;9.30;34.90;;;;;;10480498;28;20220;-70
2021/04/18 23:47:38;;;;;;;14.93;13.53;;;9.30;35.00;;;;;;10484183;28;20311;-70
2021/04/18 23:52:41;;;;;;;15.27;13.77;;;9.30;34.90;;;;;;10479794;28;20308;-70
2021/04/18 23:57:44;;;;;;;14.77;13.40;;;9.30;35.00;;;;;;10477196;28;20720;-69
